Time;durP1;ratioP1;P1;durP2;ratioP2;P2;SDS_P1;SDS_P2;PMS_P1;PMS_P2;Temp;Humidity;BMP_temperature;BMP_pressure;BME280_temperature;BME280_humidity;BME280_pressure;Samples;Min_cycle;Max_cycle;Signal;HPM_P1;HPM_P2
2021/06/05 00:00:20;;;;;;;;;;;;;;;;;;4964316;29;19918;-86
2021/06/05 00:02:45;;;;;;;;;;;;;;;;;;4961842;29;19911;-88
2021/06/05 00:05:11;;;;;;;;;;;;;;;;;;4962258;29;19911;-84
2021/06/05 00:07:36;;;;;;;;;;;;;;;;;;4945188;29;20384;-85
2021/06/05 00:10:01;;;;;;;;;;;;;;;;;;4946393;29;20279;-86
2021/06/05 00:12:26;;;;;;;;;;;;;;;;;;4946262;29;19911;-87
2021/06/05 00:14:51;;;;;;;;;;;;;;;;;;4946327;29;19933;-85
2021/06/05 00:17:17;;;;;;;;;;;;;;;;;;4945719;28;19910;-86
2021/06/05 00:19:42;;;;;;;;;;;;;;;;;;4947561;29;19917;-84
2021/06/05 00:22:07;;;;;;;;;;;;;;;;;;4948189;29;20013;-88
2021/06/05 00:24:32;;;;;;;;;;;;;;;;;;4947909;29;19968;-85
2021/06/05 00:26:59;;;;;;;;;;;;;;;;;;4963715;29;19921;-86
2021/06/05 00:29:24;;;;;;;;;;;;;;;;;;4948011;29;19911;-87
2021/06/05 00:31:49;;;;;;;;;;;;;;;;;;4948012;29;20368;-84
2021/06/05 00:34:14;;;;;;;;;;;;;;;;;;4963349;29;19974;-85
2021/06/05 00:36:39;;;;;;;;;;;;;;;;;;4961944;29;19914;-84
2021/06/05 00:39:04;;;;;;;;;;;;;;;;;;4944638;29;19918;-84
2021/06/05 00:41:29;;;;;;;;;;;;;;;;;;4944426;29;20001;-86
2021/06/05 00:43:55;;;;;;;;;;;;;;;;;;4943752;29;19976;-87
2021/06/05 00:46:20;;;;;;;;;;;;;;;;;;4945398;29;19918;-86
2021/06/05 00:48:45;;;;;;;;;;;;;;;;;;4945509;29;20336;-86
2021/06/05 00:51:10;;;;;;;;;;;;;;;;;;4946022;29;19918;-84
2021/06/05 00:53:35;;;;;;;;;;;;;;;;;;4963187;29;20300;-84
2021/06/05 00:56:00;;;;;;;;;;;;;;;;;;4962753;29;20298;-87
2021/06/05 00:58:25;;;;;;;;;;;;;;;;;;4945260;29;19911;-86
2021/06/05 01:00:50;;;;;;;;;;;;;;;;;;4943857;29;19997;-86
2021/06/05 01:03:16;;;;;;;;;;;;;;;;;;4943493;29;19934;-86
2021/06/05 01:05:41;;;;;;;;;;;;;;;;;;4944794;29;19917;-87
2021/06/05 01:08:06;;;;;;;;;;;;;;;;;;4945762;29;19910;-86
2021/06/05 01:10:31;;;;;;;;;;;;;;;;;;4946121;29;19938;-85
2021/06/05 01:12:56;;;;;;;;;;;;;;;;;;4947137;29;19917;-84
2021/06/05 01:15:21;;;;;;;;;;;;;;;;;;4962895;29;19942;-86
2021/06/05 01:17:46;;;;;;;;;;;;;;;;;;4945207;29;19934;-86
2021/06/05 01:20:11;;;;;;;;;;;;;;;;;;4945220;29;19917;-86
2021/06/05 01:22:36;;;;;;;;;;;;;;;;;;4943864;29;19921;-86
2021/06/05 01:25:02;;;;;;;;;;;;;;;;;;4946155;29;19970;-86
2021/06/05 01:27:27;;;;;;;;;;;;;;;;;;4945673;29;19910;-85
2021/06/05 01:29:52;;;;;;;;;;;;;;;;;;4964186;28;19910;-86
2021/06/05 01:32:17;;;;;;;;;;;;;;;;;;4949970;29;19911;-86
2021/06/05 01:34:42;;;;;;;;;;;;;;;;;;4966553;29;20017;-86
2021/06/05 01:37:07;;;;;;;;;;;;;;;;;;4967269;29;20393;-86
2021/06/05 01:39:33;;;;;;;;;;;;;;;;;;4949517;29;20001;-86
2021/06/05 01:41:58;;;;;;;;;;;;;;;;;;4949806;29;19956;-85
2021/06/05 01:44:23;;;;;;;;;;;;;;;;;;4949452;29;19917;-84
2021/06/05 01:46:48;;;;;;;;;;;;;;;;;;4951682;29;19937;-86
2021/06/05 01:49:13;;;;;;;;;;;;;;;;;;4967606;29;19910;-86
2021/06/05 01:51:40;;;;;;;;;;;;;;;;;;4950039;29;19968;-85
2021/06/05 01:54:05;;;;;;;;;;;;;;;;;;4967592;28;20392;-87
2021/06/05 01:56:30;;;;;;;;;;;;;;;;;;4949996;29;20352;-87
2021/06/05 01:58:55;;;;;;;;;;;;;;;;;;4949246;29;19922;-86
2021/06/05 02:01:23;;;;;;;;;;;;;;;;;;4949621;29;19910;-87
2021/06/05 02:03:50;;;;;;;;;;;;;;;;;;4967523;29;20492;-87
2021/06/05 02:06:15;;;;;;;;;;;;;;;;;;4952097;29;19911;-85
2021/06/05 02:08:40;;;;;;;;;;;;;;;;;;4949245;29;19957;-85
2021/06/05 02:11:05;;;;;;;;;;;;;;;;;;4966370;29;19911;-86
2021/06/05 02:13:30;;;;;;;;;;;;;;;;;;4965836;29;19919;-84
2021/06/05 02:15:57;;;;;;;;;;;;;;;;;;4949307;29;19918;-86
2021/06/05 02:18:22;;;;;;;;;;;;;;;;;;4949047;29;19931;-84
2021/06/05 02:20:50;;;;;;;;;;;;;;;;;;4952396;29;19910;-91
2021/06/05 02:23:15;;;;;;;;;;;;;;;;;;4948859;29;19946;-86
2021/06/05 02:25:40;;;;;;;;;;;;;;;;;;4952986;29;19918;-87
2021/06/05 02:28:05;;;;;;;;;;;;;;;;;;4952183;29;19911;-85
2021/06/05 02:30:30;;;;;;;;;;;;;;;;;;4953845;29;19910;-85
2021/06/05 02:32:55;;;;;;;;;;;;;;;;;;4968333;29;19913;-87
2021/06/05 02:35:20;;;;;;;;;;;;;;;;;;4949597;29;19918;-86
2021/06/05 02:37:45;;;;;;;;;;;;;;;;;;4953737;29;19910;-85
2021/06/05 02:40:11;;;;;;;;;;;;;;;;;;4955516;28;19911;-86
2021/06/05 02:42:36;;;;;;;;;;;;;;;;;;4955371;29;19918;-86
2021/06/05 02:45:01;;;;;;;;;;;;;;;;;;4956864;29;19919;-85
2021/06/05 02:47:26;;;;;;;;;;;;;;;;;;4969631;29;19997;-86
2021/06/05 02:49:51;;;;;;;;;;;;;;;;;;4948822;29;19910;-85
2021/06/05 02:52:28;;;;;;;;;;;;;;;;;;4949940;29;19911;-85
2021/06/05 02:54:56;;;;;;;;;;;;;;;;;;4948381;29;19922;-85
2021/06/05 02:57:21;;;;;;;;;;;;;;;;;;4949744;29;19906;-86
2021/06/05 02:59:46;;;;;;;;;;;;;;;;;;4952170;29;19993;-85
2021/06/05 03:02:11;;;;;;;;;;;;;;;;;;4951928;29;19914;-87
2021/06/05 03:04:36;;;;;;;;;;;;;;;;;;4970529;29;19910;-86
2021/06/05 03:07:01;;;;;;;;;;;;;;;;;;4970275;29;20009;-86
2021/06/05 03:09:26;;;;;;;;;;;;;;;;;;4951731;29;19910;-87
2021/06/05 03:11:52;;;;;;;;;;;;;;;;;;4951480;29;19907;-86
2021/06/05 03:14:17;;;;;;;;;;;;;;;;;;4948359;29;19927;-87
2021/06/05 03:16:42;;;;;;;;;;;;;;;;;;4969129;29;19964;-87
2021/06/05 03:19:10;;;;;;;;;;;;;;;;;;4949171;29;20369;-85
2021/06/05 03:21:35;;;;;;;;;;;;;;;;;;4948846;29;19911;-85
2021/06/05 03:24:00;;;;;;;;;;;;;;;;;;4949246;29;19916;-86
2021/06/05 03:26:25;;;;;;;;;;;;;;;;;;4971983;29;19910;-85
2021/06/05 03:28:50;;;;;;;;;;;;;;;;;;4958131;29;19910;-87
2021/06/05 03:31:19;;;;;;;;;;;;;;;;;;4958767;29;19915;-85
2021/06/05 03:33:44;;;;;;;;;;;;;;;;;;4974837;29;19919;-86
2021/06/05 03:36:09;;;;;;;;;;;;;;;;;;4957855;29;19961;-86
2021/06/05 03:38:34;;;;;;;;;;;;;;;;;;4955355;29;20412;-85
2021/06/05 03:40:59;;;;;;;;;;;;;;;;;;4948167;29;19911;-85
2021/06/05 03:43:24;;;;;;;;;;;;;;;;;;4948879;29;19949;-86
2021/06/05 03:45:50;;;;;;;;;;;;;;;;;;4948947;29;19942;-86
2021/06/05 03:48:15;;;;;;;;;;;;;;;;;;4948349;29;19910;-86
2021/06/05 03:50:40;;;;;;;;;;;;;;;;;;4948051;29;19938;-85
2021/06/05 03:53:05;;;;;;;;;;;;;;;;;;4947461;29;19911;-85
2021/06/05 03:55:32;;;;;;;;;;;;;;;;;;4949417;29;19923;-85
2021/06/05 03:57:59;;;;;;;;;;;;;;;;;;4967239;29;19910;-85
2021/06/05 04:00:24;;;;;;;;;;;;;;;;;;4956780;29;19910;-84
2021/06/05 04:02:49;;;;;;;;;;;;;;;;;;4953966;29;20017;-86
2021/06/05 04:05:14;;;;;;;;;;;;;;;;;;4969432;29;19911;-83
2021/06/05 04:07:40;;;;;;;;;;;;;;;;;;4970814;29;19918;-85
2021/06/05 04:10:05;;;;;;;;;;;;;;;;;;4954568;29;19910;-87
2021/06/05 04:12:32;;;;;;;;;;;;;;;;;;4966442;29;19914;-84
2021/06/05 04:14:57;;;;;;;;;;;;;;;;;;4967206;29;20368;-86
2021/06/05 04:17:22;;;;;;;;;;;;;;;;;;4948683;29;20444;-84
2021/06/05 04:19:47;;;;;;;;;;;;;;;;;;4950392;29;20162;-85
2021/06/05 04:22:12;;;;;;;;;;;;;;;;;;4949725;29;19911;-86
2021/06/05 04:24:38;;;;;;;;;;;;;;;;;;4965438;29;19921;-87
2021/06/05 04:27:03;;;;;;;;;;;;;;;;;;4966232;29;19918;-88
2021/06/05 04:29:28;;;;;;;;;;;;;;;;;;4949050;29;19910;-86
2021/06/05 04:31:53;;;;;;;;;;;;;;;;;;4948365;29;19910;-85
2021/06/05 04:34:18;;;;;;;;;;;;;;;;;;4952448;29;19918;-87
2021/06/05 04:36:43;;;;;;;;;;;;;;;;;;4952455;29;19921;-86
2021/06/05 04:39:08;;;;;;;;;;;;;;;;;;4969275;29;19915;-87
2021/06/05 04:41:33;;;;;;;;;;;;;;;;;;4946783;29;19910;-85
2021/06/05 04:43:59;;;;;;;;;;;;;;;;;;4947895;29;19914;-86
2021/06/05 04:46:24;;;;;;;;;;;;;;;;;;4949446;29;19919;-87
2021/06/05 04:48:49;;;;;;;;;;;;;;;;;;4949637;29;20356;-87
2021/06/05 04:51:17;;;;;;;;;;;;;;;;;;4948941;29;19911;-86
2021/06/05 04:53:42;;;;;;;;;;;;;;;;;;4948342;29;19926;-85
2021/06/05 04:56:07;;;;;;;;;;;;;;;;;;4948399;29;19929;-86
2021/06/05 04:58:33;;;;;;;;;;;;;;;;;;4949717;29;19917;-86
2021/06/05 05:00:59;;;;;;;;;;;;;;;;;;4950799;29;19977;-84
2021/06/05 05:03:24;;;;;;;;;;;;;;;;;;4966821;28;19910;-86
2021/06/05 05:05:50;;;;;;;;;;;;;;;;;;4968183;29;19958;-86
2021/06/05 05:08:15;;;;;;;;;;;;;;;;;;4949620;29;19905;-87
2021/06/05 05:10:40;;;;;;;;;;;;;;;;;;4948361;29;20368;-86
2021/06/05 05:13:05;;;;;;;;;;;;;;;;;;4948081;29;19910;-86
2021/06/05 05:15:30;;;;;;;;;;;;;;;;;;4949590;29;19918;-86
2021/06/05 05:17:55;;;;;;;;;;;;;;;;;;4967022;29;20005;-87
2021/06/05 05:20:23;;;;;;;;;;;;;;;;;;4946894;29;19930;-86
2021/06/05 05:22:49;;;;;;;;;;;;;;;;;;4950826;29;20026;-87
2021/06/05 05:25:14;;;;;;;;;;;;;;;;;;4950067;29;19973;-86
2021/06/05 05:27:39;;;;;;;;;;;;;;;;;;4948423;29;19915;-87
2021/06/05 05:30:04;;;;;;;;;;;;;;;;;;4950767;29;19935;-88
2021/06/05 05:32:30;;;;;;;;;;;;;;;;;;4949047;29;19962;-86
2021/06/05 05:34:56;;;;;;;;;;;;;;;;;;4946507;29;19925;-86
2021/06/05 05:37:21;;;;;;;;;;;;;;;;;;4946763;29;19946;-89
2021/06/05 05:39:46;;;;;;;;;;;;;;;;;;4952372;29;19910;-87
2021/06/05 05:42:14;;;;;;;;;;;;;;;;;;4954225;29;19910;-86
2021/06/05 05:44:39;;;;;;;;;;;;;;;;;;4969183;29;19918;-86
2021/06/05 05:47:04;;;;;;;;;;;;;;;;;;4949878;29;20038;-86
2021/06/05 05:49:29;;;;;;;;;;;;;;;;;;4948888;29;19964;-87
2021/06/05 05:51:54;;;;;;;;;;;;;;;;;;4965303;29;19921;-86
2021/06/05 05:54:20;;;;;;;;;;;;;;;;;;4947396;29;19922;-85
2021/06/05 05:56:45;;;;;;;;;;;;;;;;;;4951872;29;19910;-86
2021/06/05 05:59:10;;;;;;;;;;;;;;;;;;4952730;29;19911;-87
2021/06/05 06:01:35;;;;;;;;;;;;;;;;;;4952867;29;19938;-86
2021/06/05 06:04:01;;;;;;;;;;;;;;;;;;4971870;29;19911;-85
2021/06/05 06:06:26;;;;;;;;;;;;;;;;;;4953226;29;19910;-86
2021/06/05 06:08:52;;;;;;;;;;;;;;;;;;4951643;29;19917;-88
2021/06/05 06:11:17;;;;;;;;;;;;;;;;;;4950185;29;20272;-86
2021/06/05 06:13:42;;;;;;;;;;;;;;;;;;4950693;29;19974;-86
2021/06/05 06:16:10;;;;;;;;;;;;;;;;;;4967635;28;19919;-86
2021/06/05 06:18:36;;;;;;;;;;;;;;;;;;4965978;29;19910;-87
2021/06/05 06:21:01;;;;;;;;;;;;;;;;;;4951536;29;20269;-86
2021/06/05 06:23:26;;;;;;;;;;;;;;;;;;4953068;29;19953;-87
2021/06/05 06:25:51;;;;;;;;;;;;;;;;;;4951956;29;19934;-85
2021/06/05 06:28:17;;;;;;;;;;;;;;;;;;4965395;29;19912;-85
2021/06/05 06:30:42;;;;;;;;;;;;;;;;;;4949349;29;20356;-87
2021/06/05 06:33:07;;;;;;;;;;;;;;;;;;4953821;29;19911;-86
2021/06/05 06:35:32;;;;;;;;;;;;;;;;;;4951874;29;19916;-86
2021/06/05 06:37:58;;;;;;;;;;;;;;;;;;4952839;29;19910;-85
2021/06/05 06:40:23;;;;;;;;;;;;;;;;;;4951183;29;20013;-84
2021/06/05 06:42:48;;;;;;;;;;;;;;;;;;4953326;29;19921;-87
2021/06/05 06:45:13;;;;;;;;;;;;;;;;;;4954779;29;19918;-83
2021/06/05 06:47:38;;;;;;;;;;;;;;;;;;4952254;29;19898;-87
2021/06/05 06:50:03;;;;;;;;;;;;;;;;;;4953980;29;19982;-85
2021/06/05 06:52:28;;;;;;;;;;;;;;;;;;4972271;29;19917;-86
2021/06/05 06:54:53;;;;;;;;;;;;;;;;;;4973008;28;19930;-85
2021/06/05 06:57:21;;;;;;;;;;;;;;;;;;4958114;28;19918;-85
2021/06/05 06:59:46;;;;;;;;;;;;;;;;;;4960564;28;19926;-85
2021/06/05 07:02:11;;;;;;;;;;;;;;;;;;4982907;28;19917;-87
2021/06/05 07:04:36;;;;;;;;;;;;;;;;;;4961533;28;19920;-86
2021/06/05 07:07:04;;;;;;;;;;;;;;;;;;4957551;29;19918;-85
2021/06/05 07:09:31;;;;;;;;;;;;;;;;;;4979977;28;19976;-87
2021/06/05 07:11:57;;;;;;;;;;;;;;;;;;4962587;29;19942;-86
2021/06/05 07:14:22;;;;;;;;;;;;;;;;;;4957248;28;19950;-86
2021/06/05 07:16:47;;;;;;;;;;;;;;;;;;4963397;28;19910;-85
2021/06/05 07:19:12;;;;;;;;;;;;;;;;;;4963702;28;19907;-86
2021/06/05 07:21:40;;;;;;;;;;;;;;;;;;4978421;28;20050;-87
2021/06/05 07:24:05;;;;;;;;;;;;;;;;;;4957803;28;19997;-85
2021/06/05 07:26:30;;;;;;;;;;;;;;;;;;4961828;28;19921;-88
2021/06/05 07:28:56;;;;;;;;;;;;;;;;;;4951574;29;19901;-86
2021/06/05 07:31:21;;;;;;;;;;;;;;;;;;4951663;29;19917;-87
2021/06/05 07:33:47;;;;;;;;;;;;;;;;;;4954623;29;19918;-84
2021/06/05 07:36:12;;;;;;;;;;;;;;;;;;4952105;29;19981;-88
2021/06/05 07:38:37;;;;;;;;;;;;;;;;;;4948954;29;19910;-83
2021/06/05 07:41:02;;;;;;;;;;;;;;;;;;4962191;29;19915;-81
2021/06/05 07:43:27;;;;;;;;;;;;;;;;;;4966702;29;19993;-84
2021/06/05 07:45:54;;;;;;;;;;;;;;;;;;4950896;29;19950;-81
2021/06/05 07:48:19;;;;;;;;;;;;;;;;;;4948634;29;19911;-83
2021/06/05 07:50:44;;;;;;;;;;;;;;;;;;4949755;29;19917;-84
2021/06/05 07:53:09;;;;;;;;;;;;;;;;;;4951958;29;20005;-83
2021/06/05 07:55:35;;;;;;;;;;;;;;;;;;4972096;28;19911;-81
2021/06/05 07:58:00;;;;;;;;;;;;;;;;;;4945848;29;19918;-81
2021/06/05 08:00:25;;;;;;;;;;;;;;;;;;4948243;29;19911;-83
2021/06/05 08:02:50;;;;;;;;;;;;;;;;;;4948456;29;19997;-82
2021/06/05 08:05:15;;;;;;;;;;;;;;;;;;4948931;29;19910;-83
2021/06/05 08:07:40;;;;;;;;;;;;;;;;;;4948843;29;19956;-83
2021/06/05 08:10:05;;;;;;;;;;;;;;;;;;4964475;29;20002;-80
2021/06/05 08:12:31;;;;;;;;;;;;;;;;;;4949297;29;19910;-83
2021/06/05 08:14:56;;;;;;;;;;;;;;;;;;4951493;29;19927;-84
2021/06/05 08:17:21;;;;;;;;;;;;;;;;;;4948671;29;19954;-86
2021/06/05 08:19:46;;;;;;;;;;;;;;;;;;4949170;29;19938;-84
2021/06/05 08:22:11;;;;;;;;;;;;;;;;;;4949054;29;20009;-83
2021/06/05 08:24:36;;;;;;;;;;;;;;;;;;4950794;29;19918;-83
2021/06/05 08:27:01;;;;;;;;;;;;;;;;;;4947014;29;19910;-84
2021/06/05 08:29:26;;;;;;;;;;;;;;;;;;4948842;29;19918;-83
2021/06/05 08:31:51;;;;;;;;;;;;;;;;;;4967152;29;19921;-84
2021/06/05 08:34:17;;;;;;;;;;;;;;;;;;4949055;29;19918;-81
2021/06/05 08:36:42;;;;;;;;;;;;;;;;;;4947780;29;19910;-82
2021/06/05 08:39:07;;;;;;;;;;;;;;;;;;4947570;29;19953;-80
2021/06/05 08:41:32;;;;;;;;;;;;;;;;;;4963423;29;19933;-82
2021/06/05 08:44:02;;;;;;;;;;;;;;;;;;4944480;29;20368;-81
2021/06/05 08:46:27;;;;;;;;;;;;;;;;;;4943322;29;19919;-81
2021/06/05 08:48:52;;;;;;;;;;;;;;;;;;4961087;29;19913;-80
2021/06/05 08:51:17;;;;;;;;;;;;;;;;;;4947598;29;19957;-82
2021/06/05 08:53:42;;;;;;;;;;;;;;;;;;4946964;29;19918;-81
2021/06/05 08:56:08;;;;;;;;;;;;;;;;;;4959925;29;19957;-81
2021/06/05 08:58:33;;;;;;;;;;;;;;;;;;4958855;29;19910;-80
2021/06/05 09:00:58;;;;;;;;;;;;;;;;;;4941862;29;19911;-80
2021/06/05 09:03:23;;;;;;;;;;;;;;;;;;4940471;29;19911;-82
2021/06/05 09:05:48;;;;;;;;;;;;;;;;;;4958055;29;19915;-82
2021/06/05 09:08:18;;;;;;;;;;;;;;;;;;4942279;29;19910;-81
2021/06/05 09:10:43;;;;;;;;;;;;;;;;;;4963411;29;19910;-80
2021/06/05 09:13:08;;;;;;;;;;;;;;;;;;4945548;29;19917;-81
2021/06/05 09:15:34;;;;;;;;;;;;;;;;;;4963243;29;20005;-80
2021/06/05 09:18:00;;;;;;;;;;;;;;;;;;4964579;29;20403;-82
2021/06/05 09:20:25;;;;;;;;;;;;;;;;;;4966888;29;19942;-89
2021/06/05 09:22:50;;;;;;;;;;;;;;;;;;4948647;29;19922;-82
2021/06/05 09:25:15;;;;;;;;;;;;;;;;;;4951591;28;19985;-90
2021/06/05 09:27:41;;;;;;;;;;;;;;;;;;4953028;29;19917;-86
2021/06/05 09:30:07;;;;;;;;;;;;;;;;;;4953156;29;19918;-88
2021/06/05 09:32:32;;;;;;;;;;;;;;;;;;4956647;29;19975;-86
2021/06/05 09:34:57;;;;;;;;;;;;;;;;;;4954107;29;19965;-88
2021/06/05 09:37:22;;;;;;;;;;;;;;;;;;4953194;29;19917;-88
2021/06/05 09:39:48;;;;;;;;;;;;;;;;;;4953036;29;19911;-85
2021/06/05 09:42:13;;;;;;;;;;;;;;;;;;4953934;29;19895;-86
2021/06/05 09:44:38;;;;;;;;;;;;;;;;;;4953805;29;19934;-87
2021/06/05 09:47:03;;;;;;;;;;;;;;;;;;4952311;29;19997;-85
2021/06/05 09:49:28;;;;;;;;;;;;;;;;;;4952984;29;19962;-86
2021/06/05 09:51:55;;;;;;;;;;;;;;;;;;4953967;29;19966;-84
2021/06/05 09:54:20;;;;;;;;;;;;;;;;;;4971438;29;19933;-84
2021/06/05 09:56:45;;;;;;;;;;;;;;;;;;4955143;29;19911;-87
2021/06/05 09:59:10;;;;;;;;;;;;;;;;;;4952956;29;19910;-84
2021/06/05 10:01:35;;;;;;;;;;;;;;;;;;4950412;29;19910;-85
2021/06/05 10:04:00;;;;;;;;;;;;;;;;;;4952123;29;19911;-83
2021/06/05 10:06:25;;;;;;;;;;;;;;;;;;4952128;29;19978;-83
2021/06/05 10:08:52;;;;;;;;;;;;;;;;;;4950083;29;19914;-84
2021/06/05 10:11:17;;;;;;;;;;;;;;;;;;4966457;29;20356;-82
2021/06/05 10:13:42;;;;;;;;;;;;;;;;;;4952081;29;19925;-85
2021/06/05 10:16:07;;;;;;;;;;;;;;;;;;4971662;29;19910;-84
2021/06/05 10:18:33;;;;;;;;;;;;;;;;;;4952522;29;19910;-85
2021/06/05 10:20:58;;;;;;;;;;;;;;;;;;4952828;29;19910;-84
2021/06/05 10:23:24;;;;;;;;;;;;;;;;;;4953416;29;19982;-89
2021/06/05 10:25:49;;;;;;;;;;;;;;;;;;4954125;29;19933;-84
2021/06/05 10:28:15;;;;;;;;;;;;;;;;;;4967239;29;20380;-85
2021/06/05 10:30:40;;;;;;;;;;;;;;;;;;4967905;29;19969;-83
2021/06/05 10:33:05;;;;;;;;;;;;;;;;;;4949902;29;20372;-85
2021/06/05 10:35:30;;;;;;;;;;;;;;;;;;4950903;29;19918;-84
2021/06/05 10:37:55;;;;;;;;;;;;;;;;;;4950634;29;19918;-83
2021/06/05 10:40:20;;;;;;;;;;;;;;;;;;4951920;29;19911;-86
2021/06/05 10:42:45;;;;;;;;;;;;;;;;;;4950943;29;19911;-86
2021/06/05 10:45:10;;;;;;;;;;;;;;;;;;4949156;29;19914;-83
2021/06/05 10:47:36;;;;;;;;;;;;;;;;;;4950576;29;20361;-83
2021/06/05 10:50:01;;;;;;;;;;;;;;;;;;4966577;29;19958;-81
2021/06/05 10:52:26;;;;;;;;;;;;;;;;;;4949113;29;19917;-82
2021/06/05 10:54:51;;;;;;;;;;;;;;;;;;4964339;29;19922;-81
2021/06/05 10:57:17;;;;;;;;;;;;;;;;;;4963994;29;19943;-81
2021/06/05 10:59:42;;;;;;;;;;;;;;;;;;4946980;29;19910;-80
2021/06/05 11:02:07;;;;;;;;;;;;;;;;;;4965454;28;19950;-80
2021/06/05 11:04:32;;;;;;;;;;;;;;;;;;4948588;29;19911;-81
2021/06/05 11:06:57;;;;;;;;;;;;;;;;;;4964475;29;19970;-82
2021/06/05 11:09:22;;;;;;;;;;;;;;;;;;4948506;29;19910;-83
2021/06/05 11:11:47;;;;;;;;;;;;;;;;;;4948977;29;19910;-84
2021/06/05 11:14:12;;;;;;;;;;;;;;;;;;4949167;29;19922;-79
2021/06/05 11:16:37;;;;;;;;;;;;;;;;;;4966868;29;19915;-82
2021/06/05 11:19:03;;;;;;;;;;;;;;;;;;4950113;29;19910;-84
2021/06/05 11:21:28;;;;;;;;;;;;;;;;;;4968087;29;19917;-83
2021/06/05 11:23:53;;;;;;;;;;;;;;;;;;4951117;29;19910;-83
2021/06/05 11:26:18;;;;;;;;;;;;;;;;;;4965824;29;19918;-83
2021/06/05 11:28:43;;;;;;;;;;;;;;;;;;4949313;29;19910;-84
2021/06/05 11:31:08;;;;;;;;;;;;;;;;;;4970432;29;19964;-84
2021/06/05 11:33:33;;;;;;;;;;;;;;;;;;4947325;29;20395;-82
2021/06/05 11:36:00;;;;;;;;;;;;;;;;;;4947194;29;19921;-82
2021/06/05 11:38:25;;;;;;;;;;;;;;;;;;4951773;29;19942;-82
2021/06/05 11:40:51;;;;;;;;;;;;;;;;;;4950188;29;19910;-78
2021/06/05 11:43:16;;;;;;;;;;;;;;;;;;4949262;29;19911;-78
2021/06/05 11:45:41;;;;;;;;;;;;;;;;;;4964674;29;19977;-79
2021/06/05 11:48:06;;;;;;;;;;;;;;;;;;4962933;29;19942;-78
2021/06/05 11:50:31;;;;;;;;;;;;;;;;;;4961650;29;19953;-80
2021/06/05 11:52:57;;;;;;;;;;;;;;;;;;4946629;29;20013;-79
2021/06/05 11:55:22;;;;;;;;;;;;;;;;;;4945289;29;19937;-81
2021/06/05 11:57:47;;;;;;;;;;;;;;;;;;4946244;29;19914;-84
2021/06/05 12:00:12;;;;;;;;;;;;;;;;;;4964055;29;19917;-80
2021/06/05 12:02:37;;;;;;;;;;;;;;;;;;4965570;29;19917;-80
2021/06/05 12:05:04;;;;;;;;;;;;;;;;;;4950505;29;19980;-82
2021/06/05 12:07:29;;;;;;;;;;;;;;;;;;4949257;29;19965;-85
2021/06/05 12:09:57;;;;;;;;;;;;;;;;;;4951433;29;19910;-84
2021/06/05 12:12:23;;;;;;;;;;;;;;;;;;4970640;29;19911;-89
2021/06/05 12:14:54;;;;;;;;;;;;;;;;;;4953238;29;19925;-82
2021/06/05 12:17:19;;;;;;;;;;;;;;;;;;4969866;29;19915;-86
2021/06/05 12:19:44;;;;;;;;;;;;;;;;;;4970076;29;19911;-87
2021/06/05 12:22:09;;;;;;;;;;;;;;;;;;4948446;29;19916;-86
2021/06/05 12:24:34;;;;;;;;;;;;;;;;;;4966250;29;19982;-85
2021/06/05 12:26:59;;;;;;;;;;;;;;;;;;4949843;29;19953;-85
2021/06/05 12:29:25;;;;;;;;;;;;;;;;;;4948997;29;20349;-86
2021/06/05 12:31:50;;;;;;;;;;;;;;;;;;4948513;29;19917;-84
2021/06/05 12:34:15;;;;;;;;;;;;;;;;;;4946061;29;19993;-86
2021/06/05 12:36:40;;;;;;;;;;;;;;;;;;4947001;29;19914;-86
2021/06/05 12:39:05;;;;;;;;;;;;;;;;;;4947534;29;19907;-86
2021/06/05 12:41:31;;;;;;;;;;;;;;;;;;4950843;29;19917;-85
2021/06/05 12:43:56;;;;;;;;;;;;;;;;;;4952110;29;19910;-87
2021/06/05 12:46:21;;;;;;;;;;;;;;;;;;4969571;29;19921;-86
2021/06/05 12:48:46;;;;;;;;;;;;;;;;;;4954119;29;19906;-86
2021/06/05 12:51:11;;;;;;;;;;;;;;;;;;4968040;29;20010;-85
2021/06/05 12:53:36;;;;;;;;;;;;;;;;;;4954715;29;19938;-86
2021/06/05 12:56:01;;;;;;;;;;;;;;;;;;4950449;29;19933;-86
2021/06/05 12:58:27;;;;;;;;;;;;;;;;;;4964541;29;19933;-86
2021/06/05 13:00:52;;;;;;;;;;;;;;;;;;4949930;29;19916;-85
2021/06/05 13:03:18;;;;;;;;;;;;;;;;;;4968497;29;19973;-86
2021/06/05 13:05:43;;;;;;;;;;;;;;;;;;4954398;29;19952;-85
2021/06/05 13:08:08;;;;;;;;;;;;;;;;;;4954041;29;20001;-87
2021/06/05 13:10:36;;;;;;;;;;;;;;;;;;4953834;29;19910;-84
2021/06/05 13:13:03;;;;;;;;;;;;;;;;;;4952628;29;19934;-85
2021/06/05 13:15:28;;;;;;;;;;;;;;;;;;4949066;29;19918;-85
2021/06/05 13:17:54;;;;;;;;;;;;;;;;;;4951738;29;20036;-86
2021/06/05 13:20:19;;;;;;;;;;;;;;;;;;4954911;29;19977;-85
2021/06/05 13:22:44;;;;;;;;;;;;;;;;;;4971714;29;19911;-86
2021/06/05 13:25:09;;;;;;;;;;;;;;;;;;4953329;29;19911;-85
2021/06/05 13:27:34;;;;;;;;;;;;;;;;;;4952826;29;19974;-85
2021/06/05 13:29:59;;;;;;;;;;;;;;;;;;4953420;29;19910;-86
2021/06/05 13:32:24;;;;;;;;;;;;;;;;;;4952234;29;19910;-86
2021/06/05 13:34:49;;;;;;;;;;;;;;;;;;4948549;29;19929;-85
2021/06/05 13:37:14;;;;;;;;;;;;;;;;;;4951028;29;19917;-85
2021/06/05 13:39:39;;;;;;;;;;;;;;;;;;4966807;29;20385;-86
2021/06/05 13:42:05;;;;;;;;;;;;;;;;;;4953463;29;20376;-85
2021/06/05 13:44:30;;;;;;;;;;;;;;;;;;4950666;29;19914;-86
2021/06/05 13:46:55;;;;;;;;;;;;;;;;;;4952455;29;19921;-85
2021/06/05 13:49:20;;;;;;;;;;;;;;;;;;4949250;29;19938;-85
2021/06/05 13:51:45;;;;;;;;;;;;;;;;;;4952093;29;19962;-85
2021/06/05 13:54:10;;;;;;;;;;;;;;;;;;4951369;29;19957;-85
2021/06/05 13:56:35;;;;;;;;;;;;;;;;;;4952499;29;19914;-85
2021/06/05 13:59:00;;;;;;;;;;;;;;;;;;4953109;29;19911;-84
2021/06/05 14:01:26;;;;;;;;;;;;;;;;;;4954116;29;19966;-85
2021/06/05 14:03:51;;;;;;;;;;;;;;;;;;4969640;29;19911;-86
2021/06/05 14:06:16;;;;;;;;;;;;;;;;;;4953626;29;19910;-87
2021/06/05 14:08:41;;;;;;;;;;;;;;;;;;4951612;29;19907;-84
2021/06/05 14:11:07;;;;;;;;;;;;;;;;;;4954288;29;19911;-87
2021/06/05 14:13:33;;;;;;;;;;;;;;;;;;4952565;29;19918;-86
2021/06/05 14:16:00;;;;;;;;;;;;;;;;;;4967460;29;19922;-89
2021/06/05 14:18:26;;;;;;;;;;;;;;;;;;4964275;28;19918;-86
2021/06/05 14:20:51;;;;;;;;;;;;;;;;;;4965219;28;19956;-84
2021/06/05 14:23:16;;;;;;;;;;;;;;;;;;4979098;28;20287;-84
2021/06/05 14:25:41;;;;;;;;;;;;;;;;;;4979113;28;19942;-85
2021/06/05 14:28:06;;;;;;;;;;;;;;;;;;4951019;29;19918;-84
2021/06/05 14:30:32;;;;;;;;;;;;;;;;;;4959859;29;19917;-85
2021/06/05 14:32:57;;;;;;;;;;;;;;;;;;4942509;29;19997;-88
2021/06/05 14:35:22;;;;;;;;;;;;;;;;;;4939379;28;20487;-82
2021/06/05 14:37:47;;;;;;;;;;;;;;;;;;4942968;29;20050;-83
2021/06/05 14:40:12;;;;;;;;;;;;;;;;;;4952069;29;20374;-83
2021/06/05 14:42:37;;;;;;;;;;;;;;;;;;4949366;29;19933;-82
2021/06/05 14:45:02;;;;;;;;;;;;;;;;;;4947813;29;19923;-85
2021/06/05 14:47:30;;;;;;;;;;;;;;;;;;4971788;28;19910;-84
2021/06/05 14:49:55;;;;;;;;;;;;;;;;;;4964833;28;19910;-82
2021/06/05 14:52:21;;;;;;;;;;;;;;;;;;4981250;28;19914;-81
2021/06/05 14:54:46;;;;;;;;;;;;;;;;;;4979337;28;19922;-84
2021/06/05 14:57:11;;;;;;;;;;;;;;;;;;4962172;28;19969;-84
2021/06/05 14:59:36;;;;;;;;;;;;;;;;;;4961668;28;20009;-85
2021/06/05 15:02:01;;;;;;;;;;;;;;;;;;4964703;28;19981;-84
2021/06/05 15:04:26;;;;;;;;;;;;;;;;;;4960591;28;19918;-83
2021/06/05 15:06:51;;;;;;;;;;;;;;;;;;4962761;28;19921;-82
2021/06/05 15:09:16;;;;;;;;;;;;;;;;;;4962024;28;19922;-82
2021/06/05 15:11:41;;;;;;;;;;;;;;;;;;4953565;28;19911;-82
2021/06/05 15:14:07;;;;;;;;;;;;;;;;;;4955696;28;20003;-82
2021/06/05 15:16:32;;;;;;;;;;;;;;;;;;4961005;28;19946;-83
2021/06/05 15:18:57;;;;;;;;;;;;;;;;;;4940162;29;19961;-83
2021/06/05 15:21:22;;;;;;;;;;;;;;;;;;4959143;28;19966;-83
2021/06/05 15:23:47;;;;;;;;;;;;;;;;;;4940901;29;20284;-83
2021/06/05 15:26:12;;;;;;;;;;;;;;;;;;4942559;28;20445;-82
2021/06/05 15:28:37;;;;;;;;;;;;;;;;;;4954309;29;19914;-83
2021/06/05 15:31:02;;;;;;;;;;;;;;;;;;4943807;29;19911;-83
2021/06/05 15:33:28;;;;;;;;;;;;;;;;;;4941222;29;19918;-83
2021/06/05 15:35:53;;;;;;;;;;;;;;;;;;4941366;29;19910;-82
2021/06/05 15:38:18;;;;;;;;;;;;;;;;;;4940793;29;19918;-82
2021/06/05 15:40:43;;;;;;;;;;;;;;;;;;4942561;29;19910;-84
2021/06/05 15:43:08;;;;;;;;;;;;;;;;;;4942047;29;20008;-83
2021/06/05 15:45:39;;;;;;;;;;;;;;;;;;4958739;29;19966;-83
2021/06/05 15:48:04;;;;;;;;;;;;;;;;;;4971040;28;19962;-83
2021/06/05 15:50:29;;;;;;;;;;;;;;;;;;4960830;28;20364;-83
2021/06/05 15:52:54;;;;;;;;;;;;;;;;;;4977524;28;19992;-82
2021/06/05 15:55:20;;;;;;;;;;;;;;;;;;4961182;28;19958;-82
2021/06/05 15:57:45;;;;;;;;;;;;;;;;;;4959246;28;19961;-83
2021/06/05 16:00:10;;;;;;;;;;;;;;;;;;4959869;28;19918;-83
2021/06/05 16:02:35;;;;;;;;;;;;;;;;;;4977746;28;19910;-83
2021/06/05 16:05:00;;;;;;;;;;;;;;;;;;4959424;28;19914;-82
2021/06/05 16:07:25;;;;;;;;;;;;;;;;;;4956975;28;19910;-85
2021/06/05 16:09:51;;;;;;;;;;;;;;;;;;4958461;29;19911;-87
2021/06/05 16:12:16;;;;;;;;;;;;;;;;;;4941948;29;19910;-83
2021/06/05 16:14:41;;;;;;;;;;;;;;;;;;4939342;29;19919;-84
2021/06/05 16:17:06;;;;;;;;;;;;;;;;;;4960770;29;19910;-87
2021/06/05 16:19:31;;;;;;;;;;;;;;;;;;4943015;29;19975;-86
2021/06/05 16:21:57;;;;;;;;;;;;;;;;;;4943116;29;19918;-84
2021/06/05 16:24:22;;;;;;;;;;;;;;;;;;4940193;29;19910;-83
2021/06/05 16:26:47;;;;;;;;;;;;;;;;;;4940088;29;19915;-84
2021/06/05 16:29:12;;;;;;;;;;;;;;;;;;4940602;29;19914;-83
2021/06/05 16:31:37;;;;;;;;;;;;;;;;;;4939841;29;19990;-83